Terminal Aerodrome Forecast
Issued by NWS Houston/Galveston, TX

Home | Current Version | Previous Version | Text Only | Print | Product List | Glossary On
Versions: 1 2 3 4 5 6 7 8 9 10 11 12 13 14 15 16 17 18 19 20 21 22 23 24 25 26 27 28 29 30 31 32 33 34 35 36 37 38 39 40 41 42 43 44
000
FTUS44 KHGX 200604 AAN
TAFCLL
TAF AMD
KCLL 200604Z 2006/2106 16010KT P6SM BKN013
     FM200800 15006KT 6SM BR BKN009
     FM201400 17006KT P6SM BKN020
     FM201600 15007KT P6SM FEW040
     FM210500 VRB03KT P6SM SCT014=

USA.gov is the U.S. government's official web portal to all federal, state and local government web resources and services.